Time;durP1;ratioP1;P1;durP2;ratioP2;P2;SDS_P1;SDS_P2;PMS_P1;PMS_P2;Temp;Humidity;BMP_temperature;BMP_pressure;BME280_temperature;BME280_humidity;BME280_pressure;Samples;Min_cycle;Max_cycle;Signal;HPM_P1;HPM_P2
2023/01/08 00:01:42;;;;;;;25.23;11.43;;;4.30;79.60;;;;;;5001178;28;20243;-77
2023/01/08 00:04:09;;;;;;;21.67;11.83;;;4.20;79.70;;;;;;5002075;28;20235;-77
2023/01/08 00:06:34;;;;;;;23.33;11.57;;;4.20;80.10;;;;;;5002844;28;20181;-78
2023/01/08 00:09:00;;;;;;;25.83;11.87;;;4.20;80.30;;;;;;5004311;28;20274;-76
2023/01/08 00:11:26;;;;;;;28.90;13.63;;;4.20;80.50;;;;;;4984316;28;20193;-77
2023/01/08 00:13:52;;;;;;;21.40;12.03;;;4.20;80.90;;;;;;5004818;28;20173;-77
2023/01/08 00:16:18;;;;;;;20.83;12.20;;;4.20;80.30;;;;;;5006297;28;20203;-78
2023/01/08 00:18:45;;;;;;;22.47;13.00;;;4.10;80.40;;;;;;5005419;28;20185;-77
2023/01/08 00:21:11;;;;;;;20.03;11.63;;;4.10;79.40;;;;;;5003526;28;21667;-77
2023/01/08 00:23:37;;;;;;;23.90;11.43;;;4.00;79.30;;;;;;5004753;28;20603;-77
2023/01/08 00:26:08;;;;;;;16.80;11.10;;;4.00;79.80;;;;;;5003419;28;20189;-77
2023/01/08 00:28:35;;;;;;;18.60;11.93;;;4.00;79.60;;;;;;5012900;28;20305;-78
2023/01/08 00:31:08;;;;;;;18.03;11.10;;;4.00;79.90;;;;;;5003142;28;20264;-77
2023/01/08 00:33:34;;;;;;;17.80;10.87;;;4.00;79.90;;;;;;5004167;28;20189;-76
2023/01/08 00:36:05;;;;;;;19.17;11.07;;;3.90;79.60;;;;;;5003953;28;20184;-76
2023/01/08 00:38:31;;;;;;;26.80;12.67;;;3.90;80.30;;;;;;5004406;28;20181;-76
2023/01/08 00:40:56;;;;;;;24.47;12.93;;;3.90;80.20;;;;;;5004536;28;20768;-77
2023/01/08 00:43:22;;;;;;;19.57;11.07;;;3.90;81.20;;;;;;4992572;28;20192;-78
2023/01/08 00:45:50;;;;;;;20.47;11.77;;;3.90;81.40;;;;;;5004035;28;20181;-75
2023/01/08 00:48:16;;;;;;;26.00;12.53;;;3.90;80.90;;;;;;5003704;28;20209;-76
2023/01/08 00:50:41;;;;;;;23.37;11.33;;;3.90;80.80;;;;;;5004142;28;20219;-76
2023/01/08 00:53:07;;;;;;;20.83;12.27;;;3.90;80.90;;;;;;4999594;28;20197;-76
2023/01/08 00:55:33;;;;;;;20.17;11.03;;;3.90;80.80;;;;;;5009618;28;20267;-76
2023/01/08 00:57:58;;;;;;;20.27;10.77;;;3.90;81.20;;;;;;5007867;28;20319;-77
2023/01/08 01:00:24;;;;;;;24.63;10.93;;;3.90;81.30;;;;;;5005076;28;20185;-76
2023/01/08 01:02:50;;;;;;;16.37;11.23;;;3.90;81.10;;;;;;5003367;28;20189;-76
2023/01/08 01:05:16;;;;;;;21.17;11.47;;;3.90;81.30;;;;;;5012850;28;20177;-76
2023/01/08 01:07:43;;;;;;;16.90;9.80;;;3.90;81.20;;;;;;5012790;28;20209;-77
2023/01/08 01:10:11;;;;;;;22.43;11.47;;;3.90;81.20;;;;;;5003397;28;20190;-77
2023/01/08 01:12:37;;;;;;;22.93;10.40;;;3.90;81.20;;;;;;4981780;28;20659;-76
2023/01/08 01:15:09;;;;;;;18.67;10.57;;;3.90;81.30;;;;;;5007442;28;20187;-76
2023/01/08 01:17:38;;;;;;;16.70;10.63;;;3.90;81.30;;;;;;5006651;28;20181;-76
2023/01/08 01:20:06;;;;;;;26.73;11.90;;;3.90;81.30;;;;;;5005842;28;20196;-77
2023/01/08 01:22:32;;;;;;;23.67;12.13;;;3.80;81.10;;;;;;5005222;28;20189;-76
2023/01/08 01:24:58;;;;;;;20.50;10.97;;;3.80;81.20;;;;;;5001661;28;20177;-76
2023/01/08 01:27:25;;;;;;;22.80;12.47;;;3.80;81.00;;;;;;5004640;28;20231;-77
2023/01/08 01:29:51;;;;;;;17.70;10.93;;;3.70;81.20;;;;;;5006240;28;20192;-75
2023/01/08 01:32:17;;;;;;;15.77;9.70;;;3.70;80.90;;;;;;5003144;28;20633;-76
2023/01/08 01:34:43;;;;;;;19.53;11.00;;;3.70;80.90;;;;;;5009477;28;20188;-76
2023/01/08 01:37:12;;;;;;;21.13;11.93;;;3.70;81.10;;;;;;5002959;28;20185;-75
2023/01/08 01:39:38;;;;;;;27.83;11.23;;;3.70;81.20;;;;;;5005648;28;20216;-75
2023/01/08 01:42:03;;;;;;;19.63;10.20;;;3.70;81.40;;;;;;4987707;28;20200;-76
2023/01/08 01:44:43;;;;;;;18.07;10.63;;;3.70;81.40;;;;;;5007946;28;20207;-75
2023/01/08 01:47:30;;;;;;;15.40;9.97;;;3.70;81.10;;;;;;5000759;28;20597;-76
2023/01/08 01:50:12;;;;;;;17.07;10.00;;;3.70;81.50;;;;;;5006496;28;20246;-76
2023/01/08 01:52:45;;;;;;;17.77;9.93;;;3.60;81.60;;;;;;5012663;28;20188;-76
2023/01/08 01:55:12;;;;;;;18.73;10.17;;;3.70;81.80;;;;;;5018958;28;20246;-77
2023/01/08 01:57:38;;;;;;;15.70;10.63;;;3.60;81.70;;;;;;5017536;28;20176;-76
2023/01/08 02:00:08;;;;;;;18.80;10.23;;;3.60;81.60;;;;;;5007980;28;20188;-76
2023/01/08 02:02:33;;;;;;;15.23;9.00;;;3.60;81.50;;;;;;5006194;28;20267;-76
2023/01/08 02:05:00;;;;;;;17.97;9.97;;;3.50;81.60;;;;;;5006673;28;20275;-76
2023/01/08 02:07:41;;;;;;;16.60;8.87;;;3.50;81.60;;;;;;5005552;28;20213;-77
2023/01/08 02:10:23;;;;;;;13.57;8.57;;;3.50;81.70;;;;;;5004929;28;20819;-76
2023/01/08 02:13:15;;;;;;;16.00;8.93;;;3.50;81.70;;;;;;5006778;28;20550;-77
2023/01/08 02:15:43;;;;;;;16.73;8.83;;;3.40;81.60;;;;;;5001523;28;20189;-77
2023/01/08 02:18:12;;;;;;;18.57;8.97;;;3.40;81.80;;;;;;5004628;28;20185;-76
2023/01/08 02:20:53;;;;;;;19.27;8.43;;;3.40;81.90;;;;;;5005459;28;20189;-76
2023/01/08 02:23:33;;;;;;;18.70;8.40;;;3.40;81.90;;;;;;5005693;28;20188;-76
2023/01/08 02:26:09;;;;;;;22.03;9.13;;;3.40;81.80;;;;;;5004590;28;20227;-76
2023/01/08 02:29:14;;;;;;;14.00;8.87;;;3.30;82.10;;;;;;4982809;28;20240;-77
2023/01/08 02:31:42;;;;;;;20.63;9.10;;;3.30;82.00;;;;;;4982749;28;20201;-76
2023/01/08 02:34:08;;;;;;;17.90;9.23;;;3.30;82.30;;;;;;4982232;28;20698;-76
2023/01/08 02:36:46;;;;;;;12.23;8.30;;;3.30;82.80;;;;;;4982670;28;20302;-75
2023/01/08 02:39:35;;;;;;;23.77;9.77;;;3.20;82.50;;;;;;4979983;28;20185;-76
2023/01/08 02:42:23;;;;;;;12.83;9.20;;;3.20;82.60;;;;;;4975871;28;20209;-76
2023/01/08 02:45:17;;;;;;;13.63;8.13;;;3.10;82.40;;;;;;4981746;28;20231;-77
2023/01/08 02:47:48;;;;;;;13.70;8.17;;;3.10;82.50;;;;;;4929204;29;20247;-76
2023/01/08 02:50:24;;;;;;;12.20;7.23;;;3.10;82.50;;;;;;4929880;29;20740;-75
2023/01/08 02:53:12;;;;;;;18.10;9.87;;;3.10;82.50;;;;;;4926313;29;20294;-76
2023/01/08 02:55:42;;;;;;;17.27;9.27;;;3.10;82.20;;;;;;4925840;29;20335;-76
2023/01/08 02:58:08;;;;;;;13.90;8.57;;;3.10;82.50;;;;;;4918624;29;20206;-77
2023/01/08 03:00:34;;;;;;;18.77;8.63;;;3.10;82.80;;;;;;4924480;29;20770;-77
2023/01/08 03:03:26;;;;;;;13.93;8.33;;;3.10;82.90;;;;;;4924872;29;20191;-77
2023/01/08 03:06:10;;;;;;;13.30;7.73;;;3.00;82.60;;;;;;4930096;29;20739;-76
2023/01/08 03:08:39;;;;;;;16.77;8.00;;;3.00;82.80;;;;;;4934737;29;20301;-77
2023/01/08 03:11:11;;;;;;;15.53;8.73;;;3.00;82.90;;;;;;4933805;29;20200;-75
2023/01/08 03:13:53;;;;;;;11.77;7.27;;;3.00;82.70;;;;;;4942850;28;21001;-76
2023/01/08 03:16:29;;;;;;;14.97;8.30;;;3.00;83.00;;;;;;4925679;29;20302;-76
2023/01/08 03:19:03;;;;;;;15.13;7.87;;;3.00;82.80;;;;;;4943851;28;20190;-77
2023/01/08 03:21:30;;;;;;;15.63;8.00;;;3.00;82.90;;;;;;4942863;28;20195;-77
2023/01/08 03:23:56;;;;;;;13.53;7.27;;;2.90;82.70;;;;;;4951208;28;20674;-76
2023/01/08 03:26:24;;;;;;;12.03;8.00;;;2.90;83.00;;;;;;5004533;28;20239;-76
2023/01/08 03:28:54;;;;;;;10.47;7.10;;;2.90;83.80;;;;;;5001906;28;20299;-77
2023/01/08 03:31:22;;;;;;;14.47;6.13;;;2.90;84.00;;;;;;4974684;28;20201;-76
2023/01/08 03:33:49;;;;;;;12.63;6.87;;;2.90;84.20;;;;;;5003412;28;20208;-77
2023/01/08 03:36:20;;;;;;;14.10;7.47;;;2.80;84.00;;;;;;5003440;28;20919;-77
2023/01/08 03:39:04;;;;;;;12.80;7.93;;;2.80;83.00;;;;;;5005109;28;20176;-77
2023/01/08 03:41:33;;;;;;;10.07;7.30;;;2.70;83.20;;;;;;5002371;28;20185;-76
2023/01/08 03:43:58;;;;;;;14.93;7.27;;;2.70;83.40;;;;;;5013209;28;20185;-76
2023/01/08 03:46:39;;;;;;;9.97;7.07;;;2.70;83.40;;;;;;4986827;28;20226;-77
2023/01/08 03:49:06;;;;;;;12.97;6.50;;;2.70;83.10;;;;;;5001300;28;20300;-77
2023/01/08 03:51:45;;;;;;;13.80;6.53;;;2.70;83.20;;;;;;5003736;28;20189;-77
2023/01/08 03:54:18;;;;;;;15.83;7.67;;;2.70;83.10;;;;;;5003391;28;20188;-78
2023/01/08 03:56:44;;;;;;;15.10;8.63;;;2.70;83.10;;;;;;5005659;28;20234;-77
2023/01/08 03:59:11;;;;;;;11.67;6.70;;;2.70;83.20;;;;;;5003640;28;20178;-77
2023/01/08 04:01:38;;;;;;;12.07;7.73;;;2.70;83.20;;;;;;5003818;28;20254;-77
2023/01/08 04:04:04;;;;;;;12.83;7.17;;;2.70;83.20;;;;;;5002767;28;20192;-77
2023/01/08 04:06:29;;;;;;;16.37;7.33;;;2.70;83.20;;;;;;5003093;28;20189;-76
2023/01/08 04:08:55;;;;;;;14.93;8.27;;;2.60;83.10;;;;;;4986192;28;20196;-77
2023/01/08 04:11:21;;;;;;;16.90;8.47;;;2.60;82.90;;;;;;5003975;28;20185;-76
2023/01/08 04:13:46;;;;;;;14.87;8.23;;;2.60;83.10;;;;;;5003488;28;20200;-77
2023/01/08 04:16:12;;;;;;;10.10;6.87;;;2.60;83.10;;;;;;5003252;28;20216;-76
2023/01/08 04:18:38;;;;;;;15.13;8.40;;;2.60;83.30;;;;;;5004843;28;20181;-77
2023/01/08 04:21:04;;;;;;;17.07;8.27;;;2.60;83.30;;;;;;5003942;28;20191;-76
2023/01/08 04:23:29;;;;;;;10.40;7.10;;;2.60;83.40;;;;;;5004332;28;20195;-76
2023/01/08 04:25:55;;;;;;;13.40;7.17;;;2.60;83.20;;;;;;5004602;28;20189;-77
2023/01/08 04:28:21;;;;;;;10.90;7.60;;;2.50;83.20;;;;;;5010727;28;20216;-77
2023/01/08 04:30:46;;;;;;;11.37;7.47;;;2.50;83.30;;;;;;5002543;28;20199;-76
2023/01/08 04:33:12;;;;;;;11.23;7.40;;;2.50;83.30;;;;;;5006180;28;20217;-77
2023/01/08 04:35:38;;;;;;;17.37;7.67;;;2.50;83.40;;;;;;5003251;28;20177;-77
2023/01/08 04:38:04;;;;;;;12.43;7.40;;;2.50;83.60;;;;;;5002996;28;20913;-77
2023/01/08 04:40:32;;;;;;;10.60;6.73;;;2.50;83.70;;;;;;5005847;28;20771;-77
2023/01/08 04:42:58;;;;;;;13.30;8.10;;;2.50;83.70;;;;;;5009634;28;20180;-77
2023/01/08 04:45:23;;;;;;;11.93;8.00;;;2.50;83.70;;;;;;5007378;28;20189;-77
2023/01/08 04:47:55;;;;;;;14.10;7.50;;;2.40;83.60;;;;;;5016100;28;20292;-76
2023/01/08 04:50:21;;;;;;;9.50;7.10;;;2.40;83.60;;;;;;5009822;28;20215;-76
2023/01/08 04:52:47;;;;;;;13.03;7.47;;;2.40;83.70;;;;;;5009675;28;20691;-76
2023/01/08 04:55:12;;;;;;;14.43;7.67;;;2.40;83.60;;;;;;5006561;28;20177;-76
2023/01/08 04:57:38;;;;;;;13.27;7.67;;;2.40;83.60;;;;;;4991880;28;20263;-75
2023/01/08 05:00:04;;;;;;;13.63;7.17;;;2.40;83.70;;;;;;5008409;28;20181;-76
2023/01/08 05:02:30;;;;;;;11.00;8.07;;;2.30;83.60;;;;;;5008067;28;20201;-76
2023/01/08 05:04:56;;;;;;;13.13;7.00;;;2.30;83.70;;;;;;4996350;28;20182;-76
2023/01/08 05:07:21;;;;;;;9.87;7.03;;;2.30;83.70;;;;;;5016275;28;20220;-76
2023/01/08 05:09:47;;;;;;;13.33;7.67;;;2.30;83.80;;;;;;5008161;28;20234;-76
2023/01/08 05:12:13;;;;;;;12.57;7.13;;;2.30;83.80;;;;;;5004658;28;20189;-76
2023/01/08 05:14:38;;;;;;;10.87;6.33;;;2.30;83.80;;;;;;5015012;28;20213;-76
2023/01/08 05:17:04;;;;;;;10.20;6.13;;;2.30;83.60;;;;;;5005183;28;20255;-77
2023/01/08 05:19:29;;;;;;;9.80;5.80;;;2.20;83.70;;;;;;4996539;28;20269;-77
2023/01/08 05:21:55;;;;;;;13.17;6.30;;;2.20;83.80;;;;;;5008152;28;20207;-75
2023/01/08 05:24:21;;;;;;;11.97;6.13;;;2.20;83.90;;;;;;5004472;28;20288;-76
2023/01/08 05:26:46;;;;;;;6.70;5.17;;;2.20;83.90;;;;;;4987284;28;20182;-76
2023/01/08 05:29:12;;;;;;;8.83;5.83;;;2.20;83.90;;;;;;5004983;28;20271;-76
2023/01/08 05:31:38;;;;;;;8.77;5.83;;;2.20;83.90;;;;;;5007233;28;20173;-76
2023/01/08 05:34:03;;;;;;;7.40;5.63;;;2.20;83.90;;;;;;4994021;28;20189;-76
2023/01/08 05:36:29;;;;;;;8.10;4.27;;;2.10;84.00;;;;;;5006118;28;20236;-76
2023/01/08 05:38:55;;;;;;;9.77;5.27;;;2.10;84.10;;;;;;5003279;28;20173;-76
2023/01/08 05:41:21;;;;;;;8.77;6.33;;;2.10;84.20;;;;;;5007263;28;20259;-76
2023/01/08 05:43:47;;;;;;;7.90;5.40;;;2.00;84.20;;;;;;5006775;28;20189;-74
2023/01/08 05:46:12;;;;;;;7.70;5.77;;;2.00;84.20;;;;;;5007400;28;20188;-77
2023/01/08 05:48:38;;;;;;;15.23;6.23;;;2.00;84.30;;;;;;5007700;28;20221;-76
2023/01/08 05:51:04;;;;;;;15.87;6.70;;;2.00;84.60;;;;;;5007233;28;20538;-76
2023/01/08 05:53:31;;;;;;;12.40;6.77;;;2.00;84.50;;;;;;5009829;28;20173;-77
2023/01/08 05:56:02;;;;;;;13.03;6.23;;;1.90;84.40;;;;;;4988666;28;20188;-76
2023/01/08 05:58:29;;;;;;;9.07;6.53;;;1.90;84.40;;;;;;4995609;28;20292;-76
2023/01/08 06:01:04;;;;;;;14.83;6.53;;;1.90;84.50;;;;;;5016161;28;20224;-76
2023/01/08 06:03:30;;;;;;;16.43;6.87;;;1.90;84.50;;;;;;5009918;28;20755;-76
2023/01/08 06:06:04;;;;;;;14.30;6.27;;;1.90;84.60;;;;;;5010802;28;20184;-76
2023/01/08 06:08:30;;;;;;;11.80;6.23;;;1.90;84.50;;;;;;5010329;28;20325;-76
2023/01/08 06:11:05;;;;;;;11.10;5.83;;;1.90;84.50;;;;;;4986351;28;20197;-77
2023/01/08 06:13:31;;;;;;;9.10;6.10;;;1.90;84.60;;;;;;4990228;28;20298;-78
2023/01/08 06:16:01;;;;;;;10.57;6.27;;;1.90;84.80;;;;;;5006244;28;20195;-74
2023/01/08 06:18:28;;;;;;;10.47;7.10;;;1.90;84.90;;;;;;5006226;28;20682;-76
2023/01/08 06:20:54;;;;;;;11.30;5.80;;;1.90;85.00;;;;;;5004301;28;20380;-75
2023/01/08 06:23:19;;;;;;;17.30;8.03;;;1.90;85.10;;;;;;5004532;28;20189;-77
2023/01/08 06:25:52;;;;;;;9.27;5.87;;;2.00;85.20;;;;;;5004340;28;20242;-76
2023/01/08 06:28:18;;;;;;;6.30;5.70;;;2.00;85.10;;;;;;4987855;28;20286;-76
2023/01/08 06:30:44;;;;;;;11.67;6.87;;;2.00;85.30;;;;;;4995897;28;20216;-77
2023/01/08 06:33:09;;;;;;;12.17;6.13;;;2.00;85.30;;;;;;4988574;28;20173;-76
2023/01/08 06:35:35;;;;;;;13.03;6.50;;;2.00;84.80;;;;;;5004720;28;20193;-75
2023/01/08 06:38:01;;;;;;;11.83;7.03;;;2.00;84.50;;;;;;5001022;28;20193;-76
2023/01/08 06:40:26;;;;;;;9.37;6.90;;;2.10;86.00;;;;;;5005931;28;20689;-77
2023/01/08 06:42:52;;;;;;;14.07;7.13;;;2.20;86.20;;;;;;5004646;28;20181;-76
2023/01/08 06:45:18;;;;;;;15.57;7.73;;;2.40;86.80;;;;;;5014633;28;20224;-76
2023/01/08 06:47:43;;;;;;;8.23;7.50;;;2.60;86.70;;;;;;5006068;28;20209;-76
2023/01/08 06:50:10;;;;;;;10.40;7.63;;;2.90;88.30;;;;;;5004217;28;20874;-76
2023/01/08 06:52:36;;;;;;;17.67;8.80;;;3.20;88.80;;;;;;4986701;28;20180;-77
2023/01/08 06:55:03;;;;;;;14.27;9.10;;;3.50;88.80;;;;;;5004682;28;20188;-77
2023/01/08 06:57:29;;;;;;;14.70;9.50;;;3.90;89.00;;;;;;5006088;28;20173;-74
2023/01/08 06:59:55;;;;;;;17.57;10.37;;;4.20;88.50;;;;;;5003536;28;20177;-78
2023/01/08 07:02:21;;;;;;;17.07;9.43;;;4.60;88.10;;;;;;5005212;28;20205;-76
2023/01/08 07:04:46;;;;;;;17.90;9.30;;;4.90;87.50;;;;;;5010174;28;20181;-77
2023/01/08 07:07:14;;;;;;;17.37;10.17;;;5.20;86.50;;;;;;5005987;28;20278;-77
2023/01/08 07:09:42;;;;;;;15.03;10.20;;;5.40;85.20;;;;;;5005951;28;20793;-79
2023/01/08 07:12:12;;;;;;;16.40;9.77;;;5.80;85.80;;;;;;5003921;28;20213;-78
2023/01/08 07:14:38;;;;;;;15.07;10.07;;;6.20;85.90;;;;;;5006130;28;20173;-78
2023/01/08 07:17:04;;;;;;;25.67;11.03;;;6.60;85.30;;;;;;5006130;28;20188;-77
2023/01/08 07:19:30;;;;;;;22.40;11.13;;;7.10;84.80;;;;;;5007417;28;20192;-76
2023/01/08 07:21:56;;;;;;;22.30;11.20;;;7.50;83.90;;;;;;4990187;28;20629;-76
2023/01/08 07:24:21;;;;;;;21.63;11.13;;;8.00;82.80;;;;;;5001656;28;20272;-77
2023/01/08 07:26:47;;;;;;;19.77;11.83;;;8.50;81.80;;;;;;5004213;28;20177;-76
2023/01/08 07:29:13;;;;;;;22.70;13.07;;;8.90;80.80;;;;;;5003080;28;20195;-76
2023/01/08 07:31:38;;;;;;;24.73;12.57;;;9.40;79.30;;;;;;5003016;28;20215;-76
2023/01/08 07:34:04;;;;;;;23.13;12.47;;;9.90;78.30;;;;;;5005409;28;20258;-76
2023/01/08 07:36:30;;;;;;;20.40;12.80;;;10.30;77.20;;;;;;5002608;28;20205;-76
2023/01/08 07:38:55;;;;;;;18.00;12.20;;;10.70;76.00;;;;;;4999821;28;20219;-74
2023/01/08 07:41:21;;;;;;;21.50;12.77;;;11.10;74.70;;;;;;5006552;28;20296;-74
2023/01/08 07:43:47;;;;;;;26.52;13.45;;;11.50;74.70;;;;;;5004948;28;20184;-75
2023/01/08 07:46:13;;;;;;;28.08;15.35;;;11.90;73.20;;;;;;5003583;28;20216;-78
2023/01/08 07:48:39;;;;;;;25.98;16.23;;;12.30;72.50;;;;;;5003665;28;20208;-76
2023/01/08 07:51:06;;;;;;;27.45;17.17;;;12.60;71.00;;;;;;5008218;28;20582;-78
2023/01/08 07:53:33;;;;;;;31.40;17.83;;;12.90;68.00;;;;;;5004272;28;20197;-76
2023/01/08 07:56:00;;;;;;;33.88;19.15;;;12.80;66.70;;;;;;5002019;28;20192;-76
2023/01/08 07:58:26;;;;;;;38.22;19.65;;;12.50;65.10;;;;;;5008622;28;20177;-77
2023/01/08 08:00:52;;;;;;;32.15;19.33;;;12.40;66.00;;;;;;4983699;28;20205;-76
2023/01/08 08:03:18;;;;;;;32.72;18.15;;;12.60;67.40;;;;;;5005053;28;20185;-76
2023/01/08 08:05:43;;;;;;;34.33;19.95;;;12.70;66.00;;;;;;5007723;28;20185;-76
2023/01/08 08:08:10;;;;;;;27.25;16.50;;;12.80;66.00;;;;;;5008814;28;20204;-76
2023/01/08 08:10:37;;;;;;;26.98;15.50;;;13.00;66.00;;;;;;4996235;28;20698;-75
2023/01/08 08:13:03;;;;;;;26.17;14.40;;;13.10;64.30;;;;;;5004854;28;20260;-76
2023/01/08 08:15:29;;;;;;;32.63;16.25;;;13.10;63.40;;;;;;4999249;28;20215;-76
2023/01/08 08:17:54;;;;;;;26.60;15.27;;;13.30;65.90;;;;;;5006075;28;20267;-77
2023/01/08 08:20:20;;;;;;;26.50;16.08;;;13.70;64.70;;;;;;5008657;28;20209;-79
2023/01/08 08:22:46;;;;;;;30.48;15.40;;;13.90;63.40;;;;;;5006784;28;20276;-78
2023/01/08 08:25:15;;;;;;;25.70;13.57;;;14.10;62.50;;;;;;5006530;28;20204;-78
2023/01/08 08:27:42;;;;;;;24.67;14.82;;;14.50;62.90;;;;;;5009326;28;20208;-78
2023/01/08 08:30:09;;;;;;;25.55;14.18;;;15.00;62.70;;;;;;5008854;28;20239;-80
2023/01/08 08:32:34;;;;;;;22.88;13.25;;;15.50;61.70;;;;;;4992551;28;20771;-76
2023/01/08 08:35:01;;;;;;;24.25;14.77;;;15.60;59.90;;;;;;5005796;28;20177;-76
2023/01/08 08:37:26;;;;;;;22.88;14.88;;;15.70;60.50;;;;;;4999519;28;20948;-76
2023/01/08 08:39:52;;;;;;;24.30;16.17;;;16.00;60.40;;;;;;5014061;28;20177;-77
2023/01/08 08:42:18;;;;;;;19.70;14.60;;;16.40;60.10;;;;;;4999279;28;20705;-77
2023/01/08 08:44:43;;;;;;;23.33;13.95;;;16.90;59.90;;;;;;4998347;28;20182;-77
2023/01/08 08:47:09;;;;;;;20.92;14.10;;;17.30;60.10;;;;;;5005044;28;20212;-76
2023/01/08 08:49:38;;;;;;;20.25;14.40;;;17.70;58.00;;;;;;5007324;28;20263;-77
2023/01/08 08:52:04;;;;;;;21.80;14.50;;;18.10;58.00;;;;;;5007579;28;20178;-77
2023/01/08 08:54:30;;;;;;;22.70;15.25;;;18.40;56.00;;;;;;5003316;28;20272;-76
2023/01/08 08:56:56;;;;;;;25.73;16.35;;;18.40;56.50;;;;;;5010952;28;20740;-77
2023/01/08 08:59:22;;;;;;;24.45;17.05;;;18.60;57.10;;;;;;5006441;28;20187;-77
2023/01/08 09:01:47;;;;;;;22.30;15.85;;;18.80;56.50;;;;;;5009295;28;20208;-77
2023/01/08 09:04:13;;;;;;;28.50;18.15;;;19.20;56.00;;;;;;5012136;28;20598;-77
2023/01/08 09:06:39;;;;;;;23.00;16.98;;;19.40;54.40;;;;;;5005996;28;20217;-78
2023/01/08 09:09:04;;;;;;;26.35;17.30;;;19.50;54.70;;;;;;4993787;28;20213;-77
2023/01/08 09:11:31;;;;;;;22.90;16.80;;;19.70;55.00;;;;;;5002576;28;20191;-78
2023/01/08 09:13:56;;;;;;;25.77;18.02;;;19.80;54.80;;;;;;5006028;28;20199;-78
2023/01/08 09:16:22;;;;;;;28.35;18.70;;;19.90;54.50;;;;;;5003685;28;20591;-78
2023/01/08 09:18:48;;;;;;;27.80;18.33;;;20.20;54.20;;;;;;5006662;28;20748;-76
2023/01/08 09:21:14;;;;;;;26.67;19.52;;;20.40;54.10;;;;;;4988577;28;20211;-77
2023/01/08 09:23:40;;;;;;;28.52;18.92;;;20.70;52.30;;;;;;5016324;28;20181;-77
2023/01/08 09:26:06;;;;;;;27.67;19.40;;;20.60;52.10;;;;;;5007209;28;20571;-76
2023/01/08 09:28:32;;;;;;;25.98;18.63;;;20.50;53.20;;;;;;5007346;28;20660;-77
2023/01/08 09:31:04;;;;;;;28.83;19.35;;;20.60;53.40;;;;;;5003041;28;20252;-76
2023/01/08 09:33:30;;;;;;;27.52;18.88;;;20.90;53.50;;;;;;5009382;28;20200;-77
2023/01/08 09:35:56;;;;;;;26.88;19.23;;;21.20;52.80;;;;;;5006027;28;20733;-76
2023/01/08 09:38:22;;;;;;;28.33;19.02;;;21.40;52.10;;;;;;5007600;28;20193;-77
2023/01/08 09:41:15;;;;;;;30.52;18.70;;;21.40;51.50;;;;;;5006353;28;20184;-75
2023/01/08 09:43:43;;;;;;;24.70;18.23;;;21.60;52.00;;;;;;5006761;28;20299;-75
2023/01/08 09:46:11;;;;;;;24.38;17.33;;;21.90;51.90;;;;;;4999649;28;20595;-77
2023/01/08 09:48:39;;;;;;;27.23;17.13;;;22.10;52.10;;;;;;5001898;28;20208;-76
2023/01/08 09:51:12;;;;;;;27.35;18.52;;;22.40;51.60;;;;;;5005975;28;20583;-76
2023/01/08 09:53:38;;;;;;;26.15;18.20;;;22.60;51.60;;;;;;4994127;28;20572;-78
2023/01/08 09:56:12;;;;;;;23.40;17.10;;;22.80;51.00;;;;;;5004113;28;20688;-77
2023/01/08 09:58:49;;;;;;;22.33;16.05;;;23.00;51.30;;;;;;4976471;28;20168;-77
2023/01/08 10:01:20;;;;;;;22.00;15.30;;;23.20;50.50;;;;;;5006571;28;20281;-76
2023/01/08 10:03:50;;;;;;;24.10;16.10;;;23.40;50.40;;;;;;5008042;28;20176;-76
2023/01/08 10:06:17;;;;;;;22.05;17.23;;;23.60;50.60;;;;;;4989367;28;20302;-76
2023/01/08 10:08:43;;;;;;;30.85;17.05;;;23.80;48.70;;;;;;5004373;28;20204;-76
2023/01/08 10:11:11;;;;;;;21.25;15.73;;;23.80;49.20;;;;;;5009166;28;20196;-76
2023/01/08 10:13:39;;;;;;;21.50;15.75;;;23.90;49.10;;;;;;5006077;28;20184;-74
2023/01/08 10:16:08;;;;;;;21.25;15.85;;;24.00;49.40;;;;;;4999760;28;20208;-76
2023/01/08 10:18:34;;;;;;;22.15;15.25;;;24.10;49.70;;;;;;5000511;28;20271;-76
2023/01/08 10:21:00;;;;;;;23.98;15.15;;;24.20;48.90;;;;;;5001562;28;20184;-75
2023/01/08 10:23:25;;;;;;;17.67;13.35;;;24.30;49.00;;;;;;4996689;28;20482;-76
2023/01/08 10:25:53;;;;;;;20.35;12.95;;;24.30;48.10;;;;;;5000664;28;20256;-75
2023/01/08 10:28:24;;;;;;;17.15;13.32;;;24.30;47.10;;;;;;5003086;28;20248;-76
2023/01/08 10:30:52;;;;;;;15.57;12.68;;;24.20;49.10;;;;;;5011070;28;20729;-76
2023/01/08 10:33:36;;;;;;;18.27;14.45;;;24.20;48.70;;;;;;5003098;28;20185;-74
2023/01/08 10:36:05;;;;;;;18.98;13.68;;;24.20;49.70;;;;;;5006331;28;20184;-74
2023/01/08 10:38:40;;;;;;;19.50;13.85;;;24.30;48.60;;;;;;5000362;28;20203;-75
2023/01/08 10:41:10;;;;;;;22.77;16.73;;;24.40;49.70;;;;;;5004474;28;20208;-74
2023/01/08 10:43:54;;;;;;;23.58;17.45;;;24.60;49.30;;;;;;5006261;28;20569;-75
2023/01/08 10:46:23;;;;;;;23.58;18.02;;;24.70;47.30;;;;;;5003701;28;20656;-74
2023/01/08 10:48:59;;;;;;;22.83;17.95;;;24.80;48.40;;;;;;5000964;28;20212;-73
2023/01/08 10:51:27;;;;;;;26.10;18.02;;;24.90;48.30;;;;;;4999171;28;20188;-75
2023/01/08 10:53:54;;;;;;;20.27;16.23;;;24.90;48.30;;;;;;5003601;28;20192;-75
2023/01/08 10:56:28;;;;;;;22.83;17.05;;;24.90;46.20;;;;;;5015964;28;21035;-76
2023/01/08 10:58:55;;;;;;;21.75;16.55;;;25.00;47.60;;;;;;5001679;28;20196;-76
2023/01/08 11:01:29;;;;;;;37.95;21.77;;;25.00;47.80;;;;;;5001539;28;20280;-76
2023/01/08 11:04:00;;;;;;;27.42;20.13;;;25.10;47.60;;;;;;5002029;28;20206;-76
2023/01/08 11:06:30;;;;;;;27.92;18.17;;;25.10;47.70;;;;;;5005124;28;20192;-76
2023/01/08 11:09:02;;;;;;;25.50;18.23;;;25.00;48.00;;;;;;5005271;28;20208;-76
2023/01/08 11:11:34;;;;;;;23.98;17.65;;;25.00;46.60;;;;;;5006202;28;20177;-76
2023/01/08 11:14:10;;;;;;;23.63;17.00;;;25.00;46.10;;;;;;5013098;28;20231;-76
2023/01/08 11:16:40;;;;;;;26.13;17.90;;;25.00;47.10;;;;;;5013271;28;20183;-76
2023/01/08 11:19:18;;;;;;;31.23;18.80;;;24.90;47.90;;;;;;5009586;28;20215;-76
2023/01/08 11:21:54;;;;;;;24.60;17.88;;;24.80;44.70;;;;;;5016647;28;20196;-76
2023/01/08 11:24:43;;;;;;;26.17;17.58;;;24.70;48.40;;;;;;5016880;28;20266;-76
2023/01/08 11:27:31;;;;;;;21.38;16.83;;;24.70;48.10;;;;;;5016301;28;20224;-76
2023/01/08 11:29:57;;;;;;;26.33;16.75;;;24.70;46.10;;;;;;5002124;28;20262;-73
2023/01/08 11:32:31;;;;;;;20.90;17.42;;;24.80;47.90;;;;;;5003510;28;20193;-72
2023/01/08 11:35:07;;;;;;;23.05;17.08;;;24.80;45.40;;;;;;4987544;28;20199;-74
2023/01/08 11:37:40;;;;;;;23.30;17.00;;;24.80;47.40;;;;;;5003784;28;20177;-74
2023/01/08 11:40:20;;;;;;;24.88;16.98;;;24.90;45.30;;;;;;5004618;28;20872;-74
2023/01/08 11:43:03;;;;;;;21.77;15.75;;;25.00;46.90;;;;;;5007878;28;20180;-75
2023/01/08 11:45:37;;;;;;;25.65;18.02;;;25.00;46.50;;;;;;5015969;28;21040;-74
2023/01/08 11:48:26;;;;;;;23.45;17.25;;;25.00;46.70;;;;;;5002976;28;20218;-74
2023/01/08 11:51:23;;;;;;;24.10;18.48;;;24.80;47.60;;;;;;5004546;28;20273;-74
2023/01/08 11:54:16;;;;;;;22.70;18.10;;;24.60;46.90;;;;;;5004694;28;20581;-75
2023/01/08 11:57:22;;;;;;;21.25;16.77;;;24.20;44.80;;;;;;4993216;28;20256;-74
2023/01/08 12:00:07;;;;;;;24.85;17.15;;;24.10;45.80;;;;;;5004237;28;20183;-75
2023/01/08 12:02:33;;;;;;;22.92;17.90;;;24.10;45.10;;;;;;4993185;28;20274;-76
2023/01/08 12:05:22;;;;;;;21.90;17.40;;;23.80;46.90;;;;;;5004492;28;20177;-76
2023/01/08 12:08:11;;;;;;;20.65;16.35;;;23.50;45.40;;;;;;5003811;28;20354;-75
2023/01/08 12:11:07;;;;;;;20.25;15.50;;;23.40;45.50;;;;;;5004114;28;20189;-75
2023/01/08 12:14:19;;;;;;;23.15;17.85;;;23.40;45.60;;;;;;5003947;28;20184;-75
2023/01/08 12:17:10;;;;;;;21.92;15.40;;;23.20;45.30;;;;;;4943285;28;20250;-75
2023/01/08 12:20:05;;;;;;;21.00;15.98;;;23.20;46.40;;;;;;4945647;28;20739;-75
2023/01/08 12:22:48;;;;;;;20.10;15.77;;;22.70;47.00;;;;;;4935758;29;20190;-76
2023/01/08 12:25:38;;;;;;;21.25;16.58;;;22.60;48.30;;;;;;4947712;28;20260;-75
2023/01/08 12:28:13;;;;;;;21.23;16.00;;;22.20;48.10;;;;;;4947569;28;20625;-75
2023/01/08 12:30:47;;;;;;;20.67;15.90;;;21.30;47.10;;;;;;4946332;28;20311;-75
2023/01/08 12:33:16;;;;;;;19.23;14.98;;;21.20;47.60;;;;;;4940182;28;20205;-75
2023/01/08 12:35:49;;;;;;;21.15;15.85;;;21.20;47.60;;;;;;4944870;28;20221;-76
2023/01/08 12:38:27;;;;;;;27.25;15.60;;;21.20;47.80;;;;;;4944380;28;20206;-75
2023/01/08 12:41:00;;;;;;;21.65;15.85;;;21.20;47.60;;;;;;4940995;28;20364;-75
2023/01/08 12:43:58;;;;;;;24.00;16.08;;;21.20;47.60;;;;;;4957818;28;20289;-75
2023/01/08 12:46:29;;;;;;;19.55;14.50;;;21.30;48.90;;;;;;4942371;29;20224;-75
2023/01/08 12:48:56;;;;;;;21.77;14.27;;;21.10;47.70;;;;;;4942894;28;20218;-75
2023/01/08 12:51:44;;;;;;;18.70;14.23;;;21.10;48.00;;;;;;4994065;28;20291;-75
2023/01/08 12:54:19;;;;;;;21.75;14.70;;;21.10;47.90;;;;;;5006914;28;20238;-75